Time;durP1;ratioP1;P1;durP2;ratioP2;P2;SDS_P1;SDS_P2;PMS_P1;PMS_P2;Temp;Humidity;BMP_temperature;BMP_pressure;BME280_temperature;BME280_humidity;BME280_pressure;Samples;Min_cycle;Max_cycle;Signal;HPM_P1;HPM_P2
2022/08/27 00:01:35;;;;;;;18.70;6.20;;;27.10;64.90;;;;;;221065;1265;25431;-49
2022/08/27 00:06:37;;;;;;;12.70;5.60;;;27.10;65.30;;;;;;220850;1262;23139;-48
2022/08/27 00:11:40;;;;;;;9.20;5.80;;;27.10;65.00;;;;;;221669;1262;26175;-47
2022/08/27 00:16:47;;;;;;;14.80;5.60;;;27.00;65.20;;;;;;221629;1262;23116;-50
2022/08/27 00:21:53;;;;;;;10.40;5.10;;;27.00;64.90;;;;;;221337;1265;24117;-47
2022/08/27 00:26:58;;;;;;;10.10;5.40;;;27.00;65.30;;;;;;220974;1265;22707;-50
2022/08/27 00:32:00;;;;;;;11.40;5.50;;;26.90;64.80;;;;;;220967;1265;24379;-50
2022/08/27 00:37:05;;;;;;;10.30;4.90;;;26.90;64.50;;;;;;221050;1265;22540;-52
2022/08/27 00:42:07;;;;;;;8.90;5.70;;;26.90;64.60;;;;;;222621;1265;24192;-50
2022/08/27 00:47:15;;;;;;;9.50;5.10;;;26.90;64.20;;;;;;220934;1262;25310;-48
2022/08/27 00:52:30;;;;;;;9.60;5.40;;;26.90;64.30;;;;;;222072;1262;22532;-47
2022/08/27 00:57:37;;;;;;;11.10;5.30;;;26.90;64.00;;;;;;221215;1262;25251;-49
2022/08/27 01:02:46;;;;;;;10.20;5.30;;;26.90;64.00;;;;;;221391;1263;22558;-47
2022/08/27 01:07:58;;;;;;;7.20;4.70;;;26.80;63.90;;;;;;221491;1262;24398;-48
2022/08/27 01:13:00;;;;;;;11.10;4.40;;;26.80;63.80;;;;;;221167;1265;22724;-50
2022/08/27 01:18:07;;;;;;;9.70;4.90;;;26.80;63.40;;;;;;220997;1265;22557;-49
2022/08/27 01:23:34;;;;;;;8.80;4.80;;;26.80;63.60;;;;;;220740;1265;22542;-50
2022/08/27 01:28:37;;;;;;;9.60;4.90;;;26.70;63.70;;;;;;221392;1265;22567;-48
2022/08/27 01:33:59;;;;;;;6.80;4.10;;;26.70;63.50;;;;;;220691;1262;26674;-48
2022/08/27 01:39:07;;;;;;;12.30;5.00;;;26.70;63.40;;;;;;221031;1261;22549;-46
2022/08/27 01:44:10;;;;;;;9.40;4.80;;;26.70;63.60;;;;;;221386;1261;22631;-48
2022/08/27 01:49:12;;;;;;;7.70;4.00;;;26.70;63.50;;;;;;221010;1261;22563;-46
2022/08/27 01:54:14;;;;;;;10.10;4.50;;;26.60;63.40;;;;;;221204;1262;22551;-47
2022/08/27 01:59:17;;;;;;;11.60;4.60;;;26.60;63.40;;;;;;220979;1265;22560;-49
2022/08/27 02:04:23;;;;;;;9.60;4.90;;;26.60;63.40;;;;;;220942;1262;24906;-47
2022/08/27 02:09:27;;;;;;;14.20;5.30;;;26.60;63.40;;;;;;221262;1262;22540;-51
2022/08/27 02:14:29;;;;;;;9.70;5.20;;;26.50;63.30;;;;;;221018;1265;22570;-47
2022/08/27 02:19:32;;;;;;;10.30;5.10;;;26.50;63.20;;;;;;220951;1262;24233;-49
2022/08/27 02:24:34;;;;;;;8.00;4.60;;;26.50;63.10;;;;;;220864;1265;22527;-51
2022/08/27 02:29:37;;;;;;;7.70;5.00;;;26.50;63.30;;;;;;220906;1262;25244;-46
2022/08/27 02:34:40;;;;;;;10.00;4.60;;;26.50;63.10;;;;;;220890;1262;22590;-50
2022/08/27 02:39:42;;;;;;;8.70;5.00;;;26.50;63.10;;;;;;221187;1265;25306;-48
2022/08/27 02:44:48;;;;;;;10.90;5.20;;;26.50;63.20;;;;;;221341;1264;23921;-48
2022/08/27 02:49:51;;;;;;;11.40;5.40;;;26.40;63.00;;;;;;221236;1262;24132;-48
2022/08/27 02:54:56;;;;;;;12.10;5.60;;;26.40;62.70;;;;;;221027;1262;25456;-48
2022/08/27 02:59:59;;;;;;;8.60;5.50;;;26.40;63.00;;;;;;221025;1265;23052;-46
2022/08/27 03:05:02;;;;;;;10.20;5.20;;;26.40;62.70;;;;;;222625;1261;25387;-48
2022/08/27 03:10:05;;;;;;;6.90;4.90;;;26.40;62.80;;;;;;220984;1262;25589;-48
2022/08/27 03:15:12;;;;;;;10.20;5.00;;;26.40;62.60;;;;;;221284;1262;22689;-48
2022/08/27 03:20:15;;;;;;;9.90;5.30;;;26.40;62.50;;;;;;221079;1262;22531;-49
2022/08/27 03:25:18;;;;;;;7.70;5.40;;;26.30;62.30;;;;;;221403;1262;22585;-48
2022/08/27 03:30:22;;;;;;;9.60;4.70;;;26.30;62.30;;;;;;221370;1265;22546;-48
2022/08/27 03:35:25;;;;;;;7.60;5.00;;;26.30;62.20;;;;;;221065;1262;22532;-47
2022/08/27 03:40:28;;;;;;;9.50;4.70;;;26.30;62.40;;;;;;221324;1265;22567;-49
2022/08/27 03:45:30;;;;;;;6.80;5.10;;;26.30;62.30;;;;;;221334;1262;26486;-49
2022/08/27 03:50:53;;;;;;;9.20;4.70;;;26.30;62.10;;;;;;220866;1265;24762;-47
2022/08/27 03:55:56;;;;;;;11.00;4.80;;;26.30;62.20;;;;;;221514;1262;24378;-47
2022/08/27 04:00:58;;;;;;;9.40;4.50;;;26.20;62.40;;;;;;221300;1262;24036;-50
2022/08/27 04:06:02;;;;;;;7.00;4.40;;;26.20;62.30;;;;;;221401;1262;24303;-49
2022/08/27 04:11:05;;;;;;;8.90;4.60;;;26.20;62.00;;;;;;221572;1262;22559;-52
2022/08/27 04:16:07;;;;;;;7.40;4.90;;;26.20;61.90;;;;;;221514;1262;22613;-48
2022/08/27 04:21:12;;;;;;;8.70;5.50;;;26.10;61.80;;;;;;221277;1261;22539;-47
2022/08/27 04:26:15;;;;;;;7.70;4.70;;;26.10;61.80;;;;;;221691;1262;25393;-49
2022/08/27 04:31:19;;;;;;;7.70;4.80;;;26.10;62.00;;;;;;221528;1262;24234;-49
2022/08/27 04:36:27;;;;;;;8.00;5.10;;;26.10;62.10;;;;;;221389;1262;25305;-47
2022/08/27 04:41:32;;;;;;;6.20;4.40;;;26.10;62.10;;;;;;221049;1262;25655;-49
2022/08/27 04:46:36;;;;;;;8.60;5.30;;;26.10;62.10;;;;;;221023;1265;22567;-51
2022/08/27 04:51:41;;;;;;;12.70;6.00;;;26.00;61.70;;;;;;221064;1262;22553;-48
2022/08/27 04:57:03;;;;;;;8.50;5.00;;;26.00;61.70;;;;;;219689;1265;1717326;-47
2022/08/27 05:02:08;;;;;;;7.40;4.70;;;26.00;61.80;;;;;;220936;1265;24727;-52
2022/08/27 05:07:10;;;;;;;12.90;5.00;;;26.00;61.80;;;;;;221107;1262;26606;-48
2022/08/27 05:12:12;;;;;;;10.40;5.20;;;26.00;61.90;;;;;;221217;1262;24771;-49
2022/08/27 05:17:14;;;;;;;9.50;5.10;;;26.00;62.00;;;;;;220820;1265;22542;-49
2022/08/27 05:22:17;;;;;;;7.30;5.20;;;26.00;62.10;;;;;;220952;1265;22534;-49
2022/08/27 05:27:19;;;;;;;8.50;5.30;;;26.00;62.30;;;;;;220864;1265;23019;-47
2022/08/27 05:32:21;;;;;;;7.70;5.90;;;26.00;62.40;;;;;;220845;1265;22713;-50
2022/08/27 05:37:23;;;;;;;7.70;5.30;;;26.00;62.40;;;;;;220711;1265;22532;-48
2022/08/27 05:42:27;;;;;;;9.10;5.50;;;26.00;62.40;;;;;;221064;1261;22697;-48
2022/08/27 05:47:30;;;;;;;8.90;5.40;;;26.00;62.40;;;;;;221210;1262;22528;-47
2022/08/27 05:52:39;;;;;;;7.80;5.60;;;26.00;62.50;;;;;;221098;1262;22581;-49
2022/08/27 05:57:42;;;;;;;6.40;4.90;;;26.10;62.90;;;;;;221092;1262;22532;-48
2022/08/27 06:02:45;;;;;;;7.40;5.10;;;26.10;62.90;;;;;;221127;1262;22553;-48
2022/08/27 06:07:47;;;;;;;7.80;5.30;;;26.10;63.20;;;;;;221400;1262;24221;-49
2022/08/27 06:12:49;;;;;;;9.60;5.60;;;26.10;63.30;;;;;;221274;1262;25047;-51
2022/08/27 06:18:00;;;;;;;9.60;6.30;;;26.10;63.70;;;;;;221632;1262;23155;-47
2022/08/27 06:23:03;;;;;;;10.20;5.70;;;26.10;63.40;;;;;;221309;1262;24301;-50
2022/08/27 06:28:05;;;;;;;8.60;5.40;;;26.10;63.50;;;;;;221197;1262;24217;-48
2022/08/27 06:33:09;;;;;;;7.90;5.30;;;26.10;64.00;;;;;;221220;1262;22556;-48
2022/08/27 06:38:12;;;;;;;8.10;5.50;;;26.20;63.60;;;;;;220988;1262;22545;-48
2022/08/27 06:43:14;;;;;;;11.30;5.40;;;26.10;63.60;;;;;;221016;1262;26602;-49
2022/08/27 06:48:18;;;;;;;14.50;6.00;;;26.20;63.60;;;;;;221423;1262;22547;-47
2022/08/27 06:53:21;;;;;;;9.70;5.70;;;26.20;64.10;;;;;;221323;1262;24144;-47
2022/08/27 06:58:26;;;;;;;9.30;5.70;;;26.20;64.20;;;;;;221297;1262;22694;-47
2022/08/27 07:03:28;;;;;;;9.70;5.90;;;26.20;64.20;;;;;;221414;1262;22767;-48
2022/08/27 07:08:33;;;;;;;12.00;6.60;;;26.20;64.50;;;;;;221134;1262;24215;-49
2022/08/27 07:13:45;;;;;;;9.80;5.90;;;26.20;64.80;;;;;;220779;1261;23475;-48
2022/08/27 07:18:50;;;;;;;10.50;6.20;;;26.30;64.40;;;;;;221148;1261;25652;-48
2022/08/27 07:23:57;;;;;;;9.50;6.00;;;26.30;64.40;;;;;;221019;1262;22751;-49
2022/08/27 07:29:06;;;;;;;8.30;5.70;;;26.30;64.40;;;;;;220883;1265;24208;-48
2022/08/27 07:34:08;;;;;;;12.00;5.90;;;26.30;64.50;;;;;;221225;1262;24334;-50
2022/08/27 07:39:15;;;;;;;11.50;6.10;;;26.40;64.50;;;;;;221380;1265;22548;-45
2022/08/27 07:44:26;;;;;;;15.90;7.10;;;26.40;64.60;;;;;;221034;1262;24540;-50
2022/08/27 07:49:34;;;;;;;10.80;6.60;;;26.40;64.60;;;;;;220935;1262;22806;-47
2022/08/27 07:54:38;;;;;;;11.00;6.40;;;26.40;64.60;;;;;;220675;1262;22613;-48
2022/08/27 07:59:40;;;;;;;10.80;6.10;;;26.50;65.10;;;;;;228666;1262;22598;-49
2022/08/27 08:04:44;;;;;;;13.00;6.90;;;26.50;64.80;;;;;;227560;1261;25285;-48
2022/08/27 08:09:57;;;;;;;9.80;6.40;;;26.60;64.70;;;;;;225361;1262;24213;-49
2022/08/27 08:15:03;;;;;;;12.00;6.40;;;26.60;64.60;;;;;;220649;1262;25302;-48
2022/08/27 08:20:11;;;;;;;12.70;6.30;;;26.60;64.60;;;;;;228973;1262;22448;-50
2022/08/27 08:25:34;;;;;;;14.20;6.70;;;26.70;64.70;;;;;;225371;1262;22529;-47
2022/08/27 08:30:42;;;;;;;10.00;6.40;;;26.70;64.70;;;;;;221174;1261;23128;-50
2022/08/27 08:35:45;;;;;;;11.90;7.10;;;26.80;64.70;;;;;;221551;1262;22550;-48
2022/08/27 08:40:52;;;;;;;9.80;6.70;;;26.80;64.80;;;;;;221223;1262;24404;-49
2022/08/27 08:46:00;;;;;;;10.20;5.90;;;26.80;64.90;;;;;;221139;1265;24475;-51
2022/08/27 08:51:16;;;;;;;13.40;6.80;;;26.80;64.80;;;;;;221005;1265;25206;-50
2022/08/27 08:56:30;;;;;;;9.10;6.10;;;26.80;64.80;;;;;;221113;1265;22620;-48
2022/08/27 09:01:34;;;;;;;14.20;6.20;;;26.80;64.90;;;;;;221433;1265;25216;-50
2022/08/27 09:06:39;;;;;;;9.90;5.80;;;26.90;65.00;;;;;;221316;1265;24215;-48
2022/08/27 09:11:56;;;;;;;10.00;6.40;;;26.90;65.40;;;;;;221152;1265;24135;-50
2022/08/27 09:17:02;;;;;;;11.00;6.20;;;27.00;65.10;;;;;;221424;1265;25367;-47
2022/08/27 09:22:37;;;;;;;13.80;6.60;;;27.10;65.20;;;;;;221440;1265;24422;-47
2022/08/27 09:27:41;;;;;;;10.40;7.80;;;27.10;65.10;;;;;;221493;1262;25297;-47
2022/08/27 09:32:44;;;;;;;13.90;7.20;;;27.00;65.20;;;;;;221357;1262;26599;-46
2022/08/27 09:37:57;;;;;;;14.80;7.20;;;27.00;65.20;;;;;;221501;1262;22540;-47
2022/08/27 09:43:27;;;;;;;14.20;7.50;;;27.00;64.70;;;;;;221347;1262;22564;-46
2022/08/27 09:48:42;;;;;;;15.00;6.70;;;27.10;64.90;;;;;;221698;1262;24334;-47
2022/08/27 09:53:56;;;;;;;10.20;6.90;;;27.20;65.30;;;;;;221557;1263;25191;-46
2022/08/27 09:59:07;;;;;;;17.60;7.30;;;27.20;64.00;;;;;;221331;1262;22552;-45
2022/08/27 10:04:16;;;;;;;24.80;7.60;;;27.20;64.20;;;;;;221304;1262;22555;-47
2022/08/27 10:09:21;;;;;;;16.90;6.40;;;27.20;64.30;;;;;;221266;1262;24287;-48
2022/08/27 10:14:35;;;;;;;15.00;6.90;;;27.30;63.90;;;;;;221535;1262;25234;-56
2022/08/27 10:19:56;;;;;;;17.70;6.80;;;27.40;64.40;;;;;;220839;1265;25336;-50
2022/08/27 10:25:17;;;;;;;13.10;7.10;;;27.40;62.50;;;;;;221363;1262;22536;-51
2022/08/27 10:30:31;;;;;;;14.30;5.90;;;27.50;63.50;;;;;;221356;1262;23925;-50
2022/08/27 10:36:04;;;;;;;12.00;6.70;;;27.60;62.40;;;;;;221271;1262;25439;-50
2022/08/27 10:41:24;;;;;;;12.40;5.10;;;27.60;62.70;;;;;;221180;1262;24258;-52
2022/08/27 10:46:36;;;;;;;10.60;5.00;;;27.70;59.90;;;;;;221199;1262;25214;-49
2022/08/27 10:52:08;;;;;;;13.30;5.60;;;27.80;60.00;;;;;;220661;1265;22544;-54
2022/08/27 10:57:55;;;;;;;11.30;5.20;;;27.80;60.80;;;;;;220689;1262;22574;-52
2022/08/27 11:03:24;;;;;;;11.40;5.20;;;27.80;60.50;;;;;;221202;1262;24203;-51
2022/08/27 11:08:40;;;;;;;8.90;6.20;;;27.80;60.70;;;;;;221386;1262;25332;-51
2022/08/27 11:13:47;;;;;;;10.40;5.50;;;27.90;60.70;;;;;;220813;1265;22544;-54
2022/08/27 11:18:55;;;;;;;7.90;4.50;;;28.00;60.00;;;;;;220978;1267;22545;-50
2022/08/27 11:24:13;;;;;;;8.80;4.90;;;28.10;59.40;;;;;;221015;1265;22571;-53
2022/08/27 11:29:28;;;;;;;6.90;4.50;;;27.80;57.10;;;;;;221193;1262;26531;-53
2022/08/27 11:34:40;;;;;;;10.60;5.60;;;27.90;57.90;;;;;;220982;1265;22539;-53
2022/08/27 11:39:53;;;;;;;23.40;14.90;;;27.90;57.40;;;;;;220899;1265;24371;-53
2022/08/27 11:45:04;;;;;;;15.10;9.50;;;27.90;58.20;;;;;;221438;1265;22570;-52
2022/08/27 11:50:18;;;;;;;46.80;33.30;;;27.80;58.80;;;;;;221242;1262;25346;-49
2022/08/27 11:55:20;;;;;;;41.00;24.70;;;28.00;59.30;;;;;;221246;1262;22549;-52
2022/08/27 12:00:26;;;;;;;27.60;17.20;;;28.00;59.90;;;;;;221526;1262;24521;-50
2022/08/27 12:05:33;;;;;;;20.40;15.20;;;28.00;60.30;;;;;;221363;1262;23916;-51
2022/08/27 12:10:57;;;;;;;22.40;14.60;;;28.00;61.10;;;;;;221353;1262;25242;-49
2022/08/27 12:16:11;;;;;;;19.50;14.40;;;28.00;60.90;;;;;;221263;1262;22586;-50
2022/08/27 12:21:25;;;;;;;18.60;13.00;;;28.00;61.60;;;;;;221680;1262;22652;-50
2022/08/27 12:26:35;;;;;;;16.00;12.00;;;27.90;61.60;;;;;;221429;1261;24286;-51
2022/08/27 12:31:42;;;;;;;15.80;10.10;;;27.90;61.80;;;;;;221249;1262;24213;-47
2022/08/27 12:36:47;;;;;;;13.40;8.90;;;28.00;61.70;;;;;;221366;1265;22531;-51
2022/08/27 12:41:55;;;;;;;14.90;8.80;;;27.90;61.60;;;;;;221206;1265;23916;-51
2022/08/27 12:47:04;;;;;;;9.80;7.10;;;28.00;62.20;;;;;;221023;1261;23940;-49
2022/08/27 12:52:55;;;;;;;7.30;6.30;;;28.10;62.10;;;;;;221050;1262;22612;-48
2022/08/27 12:58:16;;;;;;;9.00;6.50;;;28.30;59.60;;;;;;221045;1262;25430;-50
2022/08/27 13:03:32;;;;;;;14.70;7.30;;;28.30;59.90;;;;;;221160;1261;24144;-53
2022/08/27 13:08:35;;;;;;;11.30;6.30;;;28.30;60.30;;;;;;221499;1262;24381;-53
2022/08/27 13:13:38;;;;;;;8.00;5.50;;;28.40;59.90;;;;;;221242;1262;22557;-54
2022/08/27 13:18:41;;;;;;;18.70;6.00;;;28.50;58.30;;;;;;221317;1262;24073;-50
2022/08/27 13:24:04;;;;;;;10.50;5.10;;;28.50;58.20;;;;;;221222;1262;22558;-54
2022/08/27 13:29:08;;;;;;;9.00;5.70;;;28.50;59.10;;;;;;221564;1262;22590;-49
2022/08/27 13:34:17;;;;;;;10.20;5.50;;;28.40;59.90;;;;;;221324;1261;24468;-49
2022/08/27 13:39:20;;;;;;;16.20;5.60;;;28.40;60.70;;;;;;229034;1261;22409;-51
2022/08/27 13:44:27;;;;;;;8.60;5.20;;;28.40;59.90;;;;;;227161;1264;22621;-47
2022/08/27 13:49:32;;;;;;;11.00;4.80;;;28.40;60.50;;;;;;221105;1262;25674;-52
2022/08/27 13:54:52;;;;;;;8.20;4.40;;;28.50;60.40;;;;;;221470;1262;22535;-49
2022/08/27 13:59:55;;;;;;;7.50;4.50;;;28.20;59.10;;;;;;221512;1265;22759;-55
2022/08/27 14:05:23;;;;;;;9.40;4.00;;;28.10;59.10;;;;;;221534;1261;22547;-50
2022/08/27 14:10:33;;;;;;;7.70;4.20;;;28.00;58.70;;;;;;221218;1265;24286;-49
2022/08/27 14:15:39;;;;;;;8.60;4.70;;;28.10;58.50;;;;;;221061;1265;24475;-49
2022/08/27 14:20:42;;;;;;;11.20;4.50;;;28.10;59.30;;;;;;220921;1265;24412;-52
2022/08/27 14:25:45;;;;;;;10.20;4.80;;;28.20;60.00;;;;;;220766;1265;22546;-54
2022/08/27 14:30:48;;;;;;;9.50;4.60;;;28.20;60.20;;;;;;221230;1264;25411;-54
2022/08/27 14:35:55;;;;;;;8.60;4.30;;;28.20;60.20;;;;;;220924;1262;25470;-56
2022/08/27 14:40:57;;;;;;;8.10;4.90;;;28.20;60.20;;;;;;221205;1262;24252;-55
2022/08/27 14:46:01;;;;;;;8.00;4.30;;;28.20;60.50;;;;;;221441;1261;25368;-51
2022/08/27 14:51:11;;;;;;;6.40;4.50;;;28.10;60.50;;;;;;221496;1264;24561;-51
2022/08/27 14:56:17;;;;;;;8.90;5.00;;;28.10;61.00;;;;;;221403;1261;22663;-51
2022/08/27 15:01:23;;;;;;;8.90;4.90;;;28.10;61.20;;;;;;221639;1262;22553;-54
2022/08/27 15:06:26;;;;;;;6.40;4.30;;;28.10;61.40;;;;;;221642;1265;22599;-53
2022/08/27 15:11:33;;;;;;;8.10;4.90;;;28.00;61.60;;;;;;221308;1262;24353;-52
2022/08/27 15:16:39;;;;;;;8.10;4.50;;;28.00;61.80;;;;;;221087;1265;22854;-54
2022/08/27 15:21:45;;;;;;;6.20;4.40;;;28.00;61.90;;;;;;221043;1265;25357;-52
2022/08/27 15:26:49;;;;;;;6.90;4.60;;;28.00;62.10;;;;;;220969;1262;22534;-51
2022/08/27 15:31:53;;;;;;;8.50;4.90;;;27.90;62.20;;;;;;221020;1262;23978;-52
2022/08/27 15:36:56;;;;;;;8.90;4.40;;;27.90;62.70;;;;;;221207;1265;23168;-51
2022/08/27 15:41:58;;;;;;;7.90;4.70;;;27.90;62.70;;;;;;220996;1262;25606;-53
2022/08/27 15:47:08;;;;;;;7.70;4.60;;;27.90;62.80;;;;;;221022;1262;22550;-52
2022/08/27 15:52:13;;;;;;;7.80;4.60;;;27.90;62.80;;;;;;221242;1262;22553;-52
2022/08/27 15:57:19;;;;;;;6.40;4.80;;;27.80;62.90;;;;;;221395;1262;24192;-52
2022/08/27 16:02:23;;;;;;;5.80;4.30;;;27.80;63.10;;;;;;221431;1262;22550;-53
2022/08/27 16:07:26;;;;;;;8.00;4.50;;;27.80;63.10;;;;;;221293;1265;22531;-53
2022/08/27 16:12:29;;;;;;;6.50;4.90;;;27.80;63.20;;;;;;221127;1265;22694;-53
2022/08/27 16:17:32;;;;;;;6.80;5.10;;;27.80;63.20;;;;;;221351;1262;22528;-52
2022/08/27 16:22:34;;;;;;;6.80;5.10;;;27.80;63.30;;;;;;221818;1261;22550;-52
2022/08/27 16:27:37;;;;;;;5.90;4.70;;;27.80;63.50;;;;;;221632;1262;22563;-53
2022/08/27 16:32:40;;;;;;;5.60;4.40;;;27.80;63.70;;;;;;221467;1262;22706;-52
2022/08/27 16:37:43;;;;;;;6.80;5.00;;;27.70;63.50;;;;;;221660;1262;22548;-50
2022/08/27 16:42:53;;;;;;;6.20;4.90;;;27.70;63.60;;;;;;213743;1306;543579;-52
2022/08/27 16:53:23;;;;;;;7.30;4.90;;;27.70;63.60;;;;;;217490;1280;1516162;-51
2022/08/27 16:58:30;;;;;;;6.10;5.00;;;27.70;64.30;;;;;;218903;1280;22561;-54
2022/08/27 17:04:00;;;;;;;6.20;4.90;;;27.70;63.80;;;;;;218851;1280;22605;-54
2022/08/27 17:09:23;;;;;;;6.80;5.10;;;27.70;64.40;;;;;;218942;1280;22557;-52
2022/08/27 17:14:30;;;;;;;7.60;4.80;;;27.70;63.90;;;;;;218806;1280;22627;-58
2022/08/27 17:19:35;;;;;;;5.60;4.40;;;27.60;63.70;;;;;;218846;1280;22567;-54
2022/08/27 17:24:40;;;;;;;8.30;4.80;;;27.70;63.90;;;;;;218609;1282;22563;-51
2022/08/27 17:29:43;;;;;;;7.30;4.80;;;27.60;63.80;;;;;;218793;1280;24235;-54
2022/08/27 17:34:47;;;;;;;9.60;4.90;;;27.60;63.80;;;;;;218574;1280;24257;-52
2022/08/27 17:39:51;;;;;;;6.20;4.90;;;27.60;63.90;;;;;;218628;1280;25506;-52
2022/08/27 17:44:56;;;;;;;5.60;4.60;;;27.60;64.40;;;;;;218857;1278;22568;-55
2022/08/27 17:50:02;;;;;;;9.10;4.90;;;27.60;64.20;;;;;;218983;1280;22541;-50
2022/08/27 17:55:06;;;;;;;6.80;4.70;;;27.60;64.30;;;;;;218988;1280;22572;-53
2022/08/27 18:00:13;;;;;;;7.10;5.10;;;27.50;64.30;;;;;;219001;1280;24262;-54
2022/08/27 18:05:19;;;;;;;9.00;4.90;;;27.50;64.40;;;;;;218721;1280;22562;-54
2022/08/27 18:10:24;;;;;;;7.70;4.70;;;27.50;64.40;;;;;;218907;1280;24488;-52
2022/08/27 18:15:32;;;;;;;5.80;5.20;;;27.50;64.50;;;;;;218828;1280;24259;-52
2022/08/27 18:20:36;;;;;;;6.80;4.70;;;27.50;64.50;;;;;;218895;1280;22587;-53
2022/08/27 18:25:46;;;;;;;6.00;5.00;;;27.50;64.90;;;;;;219060;1278;22543;-53
2022/08/27 18:30:51;;;;;;;9.30;5.60;;;27.40;64.60;;;;;;218936;1277;24235;-51
2022/08/27 18:35:57;;;;;;;6.60;5.20;;;27.40;64.70;;;;;;218980;1277;25357;-53
2022/08/27 18:41:01;;;;;;;6.00;5.20;;;27.40;64.80;;;;;;219148;1277;24299;-53
2022/08/27 18:46:05;;;;;;;7.00;5.70;;;27.30;64.70;;;;;;219405;1277;22637;-54
2022/08/27 18:51:12;;;;;;;8.50;5.70;;;27.40;64.90;;;;;;219316;1277;25255;-52
2022/08/27 18:56:18;;;;;;;7.70;5.90;;;27.40;64.90;;;;;;219146;1277;24352;-50
2022/08/27 19:01:25;;;;;;;8.90;5.30;;;27.30;64.90;;;;;;219113;1277;22540;-54
2022/08/27 19:06:29;;;;;;;11.60;5.70;;;27.30;65.00;;;;;;219184;1277;22635;-54
2022/08/27 19:11:32;;;;;;;8.50;5.60;;;27.30;65.00;;;;;;219225;1277;22556;-52
2022/08/27 19:16:44;;;;;;;9.10;5.70;;;27.30;65.10;;;;;;218925;1277;22562;-50
2022/08/27 19:21:48;;;;;;;7.90;5.40;;;27.30;65.10;;;;;;219176;1277;22645;-53
2022/08/27 19:26:54;;;;;;;7.90;5.70;;;27.20;65.20;;;;;;219362;1277;22981;-52
2022/08/27 19:32:05;;;;;;;9.70;5.70;;;27.20;65.30;;;;;;219268;1277;22547;-55
2022/08/27 19:37:50;;;;;;;10.50;6.70;;;27.20;65.40;;;;;;219338;1277;22542;-51
2022/08/27 19:42:56;;;;;;;7.80;6.20;;;27.20;65.40;;;;;;219272;1277;22606;-52
2022/08/27 19:48:00;;;;;;;9.90;6.20;;;27.20;65.40;;;;;;219372;1277;24325;-52
2022/08/27 19:53:04;;;;;;;7.90;6.10;;;27.20;65.50;;;;;;219046;1277;22704;-54
2022/08/27 19:58:09;;;;;;;8.20;6.50;;;27.10;65.50;;;;;;219446;1277;22573;-50
2022/08/27 20:03:13;;;;;;;8.80;6.20;;;27.10;65.50;;;;;;219304;1277;25356;-52
2022/08/27 20:08:18;;;;;;;8.20;6.00;;;27.10;65.90;;;;;;219312;1276;22731;-53
2022/08/27 20:13:26;;;;;;;10.00;6.10;;;27.10;65.60;;;;;;219476;1277;25334;-52
2022/08/27 20:18:35;;;;;;;7.90;6.20;;;27.10;65.60;;;;;;219455;1274;22537;-52
2022/08/27 20:23:41;;;;;;;8.10;5.30;;;27.10;65.60;;;;;;219467;1277;24202;-53
2022/08/27 20:28:45;;;;;;;8.10;6.10;;;27.10;65.60;;;;;;219413;1276;24269;-54
2022/08/27 20:33:53;;;;;;;8.70;5.90;;;27.00;65.60;;;;;;218846;1278;22560;-52
2022/08/27 20:39:03;;;;;;;9.20;5.80;;;27.00;65.70;;;;;;219306;1275;22856;-50
2022/08/27 20:44:17;;;;;;;7.90;5.90;;;27.00;65.70;;;;;;219474;1275;24496;-54
2022/08/27 20:49:23;;;;;;;7.60;5.60;;;27.10;65.90;;;;;;219371;1274;27428;-53
2022/08/27 20:54:33;;;;;;;6.60;5.30;;;27.00;66.10;;;;;;219375;1276;22571;-54
2022/08/27 21:05:17;;;;;;;7.70;5.30;;;26.90;66.00;;;;;;219429;1274;23945;-56
2022/08/27 21:10:24;;;;;;;7.40;5.10;;;27.00;66.40;;;;;;219402;1275;23043;-53
2022/08/27 21:15:29;;;;;;;10.50;5.60;;;26.90;65.80;;;;;;219408;1274;22587;-54
2022/08/27 21:20:33;;;;;;;7.60;5.60;;;26.90;65.90;;;;;;219389;1276;22551;-54
2022/08/27 21:25:37;;;;;;;7.60;5.80;;;26.90;65.90;;;;;;219400;1275;25284;-54
2022/08/27 21:30:41;;;;;;;8.70;5.30;;;26.90;65.90;;;;;;219070;1277;24229;-53
2022/08/27 21:35:45;;;;;;;9.30;5.20;;;26.90;66.20;;;;;;219060;1277;26495;-55
2022/08/27 21:40:50;;;;;;;8.80;6.20;;;26.80;66.20;;;;;;219331;1275;25457;-52
2022/08/27 21:45:55;;;;;;;10.70;6.10;;;26.80;65.80;;;;;;219356;1275;22549;-54
2022/08/27 21:51:06;;;;;;;8.50;6.30;;;26.80;65.70;;;;;;219390;1277;24047;-53
2022/08/27 21:56:10;;;;;;;8.80;6.40;;;26.80;66.10;;;;;;219393;1277;22568;-54
2022/08/27 22:01:14;;;;;;;7.60;6.20;;;26.80;65.80;;;;;;219248;1276;25300;-53
2022/08/27 22:06:18;;;;;;;11.20;6.80;;;26.80;65.70;;;;;;219296;1277;22601;-54
2022/08/27 22:11:23;;;;;;;8.00;5.90;;;26.80;65.80;;;;;;219265;1277;22725;-51
2022/08/27 22:16:27;;;;;;;8.30;6.50;;;26.70;65.80;;;;;;219367;1277;22560;-53
2022/08/27 22:21:32;;;;;;;9.50;6.90;;;26.80;65.90;;;;;;219301;1276;25392;-54
2022/08/27 22:26:36;;;;;;;8.90;7.10;;;26.80;66.20;;;;;;219418;1276;23161;-51
2022/08/27 22:31:40;;;;;;;9.00;7.00;;;26.70;65.80;;;;;;219260;1277;22538;-52
2022/08/27 22:36:48;;;;;;;10.30;7.30;;;26.70;65.80;;;;;;219219;1277;24221;-53
2022/08/27 22:41:56;;;;;;;;;;;26.70;65.90;;;;;;219188;1276;25229;-56
2022/08/27 22:47:05;;;;;;;9.20;7.60;;;26.70;65.90;;;;;;218953;1277;22544;-54
2022/08/27 22:52:10;;;;;;;10.10;7.60;;;26.70;66.00;;;;;;219357;1275;22877;-54
2022/08/27 22:57:17;;;;;;;9.10;7.70;;;26.70;66.60;;;;;;219237;1276;24769;-54
2022/08/27 23:02:27;;;;;;;10.50;8.30;;;26.60;65.90;;;;;;219209;1277;22568;-51
2022/08/27 23:07:34;;;;;;;10.80;8.50;;;26.60;65.90;;;;;;219791;1270;22766;-54
2022/08/27 23:12:39;;;;;;;10.00;8.90;;;26.70;66.00;;;;;;220022;1271;24328;-52
2022/08/27 23:17:48;;;;;;;9.30;8.20;;;26.60;66.30;;;;;;220061;1270;24388;-54
2022/08/27 23:23:00;;;;;;;11.40;9.20;;;26.60;66.00;;;;;;219979;1270;23015;-53
2022/08/27 23:28:06;;;;;;;13.90;9.30;;;26.60;66.00;;;;;;219925;1270;23289;-56
2022/08/27 23:33:17;;;;;;;11.50;9.70;;;26.50;66.00;;;;;;219977;1270;22542;-53
2022/08/27 23:38:23;;;;;;;10.70;9.50;;;26.60;66.10;;;;;;220145;1270;22550;-54
2022/08/27 23:43:28;;;;;;;11.60;9.90;;;26.50;66.00;;;;;;220439;1270;23021;-53
2022/08/27 23:48:33;;;;;;;11.10;9.90;;;26.50;66.00;;;;;;220393;1270;24229;-55
2022/08/27 23:53:38;;;;;;;13.40;11.20;;;26.50;66.10;;;;;;220027;1271;23955;-52
2022/08/27 23:58:44;;;;;;;13.20;11.50;;;26.40;66.10;;;;;;219970;1270;22557;-52
